createdAt,value
2023-05-05T00:00:15.476Z,8.38
2023-05-05T00:01:15.462Z,8.36
2023-05-05T00:02:15.543Z,8.33
2023-05-05T00:03:15.496Z,8.38
2023-05-05T00:04:16.551Z,8.34
2023-05-05T00:05:15.432Z,8.30
2023-05-05T00:06:15.428Z,8.20
2023-05-05T00:07:15.452Z,8.18
2023-05-05T00:08:15.410Z,8.24
2023-05-05T00:09:15.389Z,8.18
2023-05-05T00:10:15.397Z,8.09
2023-05-05T00:11:15.380Z,8.15
2023-05-05T00:12:15.401Z,8.12
2023-05-05T00:13:15.378Z,8.05
2023-05-05T00:14:15.365Z,7.98
2023-05-05T00:15:15.342Z,7.95
2023-05-05T00:16:15.366Z,7.95
2023-05-05T00:17:15.424Z,7.91
2023-05-05T00:18:15.319Z,7.90
2023-05-05T00:19:15.319Z,7.82
2023-05-05T00:20:15.308Z,7.85
2023-05-05T00:21:15.325Z,7.85
2023-05-05T00:22:15.298Z,7.80
2023-05-05T00:23:15.283Z,7.85
2023-05-05T00:24:15.297Z,7.79
2023-05-05T00:25:15.268Z,7.76
2023-05-05T00:26:15.291Z,7.82
2023-05-05T00:27:15.262Z,7.77
2023-05-05T00:28:15.251Z,7.77
2023-05-05T00:29:15.239Z,7.73
2023-05-05T00:30:15.250Z,7.70
2023-05-05T00:31:15.267Z,7.70
2023-05-05T00:32:15.213Z,7.66
2023-05-05T00:33:15.210Z,7.70
2023-05-05T00:34:15.201Z,7.67
2023-05-05T00:35:15.218Z,7.70
2023-05-05T00:36:15.186Z,7.67
2023-05-05T00:37:15.180Z,7.72
2023-05-05T00:38:15.174Z,7.67
2023-05-05T00:39:15.162Z,7.73
2023-05-05T00:40:15.192Z,7.72
2023-05-05T00:41:15.150Z,7.66
2023-05-05T00:42:15.147Z,7.57
2023-05-05T00:43:15.137Z,7.58
2023-05-05T00:44:15.128Z,7.67
2023-05-05T00:45:15.146Z,7.60
2023-05-05T00:46:15.152Z,7.63
2023-05-05T00:47:15.100Z,7.56
2023-05-05T00:48:15.088Z,7.54
2023-05-05T00:49:15.109Z,7.50
2023-05-05T00:50:15.107Z,7.43
2023-05-05T00:51:15.067Z,7.42
2023-05-05T00:52:15.071Z,7.50
2023-05-05T00:53:15.063Z,7.53
2023-05-05T00:54:15.075Z,7.42
2023-05-05T00:55:15.046Z,7.47
2023-05-05T00:56:15.032Z,7.45
2023-05-05T00:57:15.048Z,7.32
2023-05-05T00:58:15.022Z,7.31
2023-05-05T00:59:15.038Z,7.31
2023-05-05T01:00:15.000Z,7.28
2023-05-05T01:01:15.041Z,7.25
2023-05-05T01:02:14.988Z,7.32
2023-05-05T01:03:15.073Z,7.31
2023-05-05T01:04:14.997Z,7.28
2023-05-05T01:05:14.987Z,7.29
2023-05-05T01:06:14.957Z,7.29
2023-05-05T01:07:14.963Z,7.17
2023-05-05T01:08:14.971Z,7.28
2023-05-05T01:09:14.942Z,7.25
2023-05-05T01:10:22.433Z,7.17
2023-05-05T01:11:16.925Z,7.23
2023-05-05T01:12:14.914Z,7.17
2023-05-05T01:13:14.954Z,7.18
2023-05-05T01:14:14.892Z,7.18
2023-05-05T01:15:14.895Z,7.17
2023-05-05T01:16:14.912Z,7.24
2023-05-05T01:17:14.869Z,7.15
2023-05-05T01:18:14.886Z,7.24
2023-05-05T01:19:14.860Z,7.24
2023-05-05T01:20:14.880Z,7.23
2023-05-05T01:21:14.838Z,7.23
2023-05-05T01:22:14.862Z,7.25
2023-05-05T01:23:14.857Z,7.21
2023-05-05T01:24:14.818Z,7.20
2023-05-05T01:25:14.808Z,7.24
2023-05-05T01:26:14.800Z,7.18
2023-05-05T01:27:14.821Z,7.18
2023-05-05T01:28:14.785Z,7.24
2023-05-05T01:29:14.773Z,7.18
2023-05-05T01:30:14.761Z,7.15
2023-05-05T01:31:14.784Z,7.31
2023-05-05T01:32:14.794Z,7.18
2023-05-05T01:33:14.746Z,7.18
2023-05-05T01:34:14.743Z,7.10
2023-05-05T01:35:14.741Z,7.11
2023-05-05T01:36:14.745Z,7.03
2023-05-05T01:37:14.734Z,7.10
2023-05-05T01:38:14.711Z,7.05
2023-05-05T01:39:14.700Z,7.07
2023-05-05T01:40:14.755Z,7.06
2023-05-05T01:41:14.706Z,7.06
2023-05-05T01:42:14.668Z,7.03
2023-05-05T01:43:14.664Z,6.97
2023-05-05T01:44:14.654Z,7.02
2023-05-05T01:45:14.648Z,7.00
2023-05-05T01:46:14.809Z,7.02
2023-05-05T01:47:14.649Z,7.02
2023-05-05T01:48:14.630Z,7.06
2023-05-05T01:49:14.620Z,7.10
2023-05-05T01:50:14.635Z,7.00
2023-05-05T01:51:14.622Z,7.10
2023-05-05T01:52:14.589Z,7.06
2023-05-05T01:53:14.593Z,7.13
2023-05-05T01:54:14.581Z,7.03
2023-05-05T01:55:14.593Z,7.10
2023-05-05T01:56:14.573Z,7.07
2023-05-05T01:57:14.571Z,7.11
2023-05-05T01:58:14.563Z,7.15
2023-05-05T01:59:14.547Z,7.13
2023-05-05T02:00:14.936Z,7.06
2023-05-05T02:01:14.574Z,7.10
2023-05-05T02:02:14.532Z,7.13
2023-05-05T02:03:14.641Z,7.11
2023-05-05T02:04:14.569Z,7.17
2023-05-05T02:05:14.521Z,7.15
2023-05-05T02:06:14.493Z,7.18
2023-05-05T02:07:14.512Z,7.10
2023-05-05T02:08:15.488Z,7.17
2023-05-05T02:09:14.487Z,7.23
2023-05-05T02:10:14.456Z,7.21
2023-05-05T02:11:14.458Z,7.24
2023-05-05T02:12:14.456Z,7.25
2023-05-05T02:13:14.495Z,7.28
2023-05-05T02:14:14.454Z,7.32
2023-05-05T02:15:14.438Z,7.32
2023-05-05T02:16:14.428Z,7.31
2023-05-05T02:17:14.406Z,7.25
2023-05-05T02:18:14.431Z,7.36
2023-05-05T02:19:14.424Z,7.33
2023-05-05T02:20:14.394Z,7.35
2023-05-05T02:21:14.382Z,7.38
2023-05-05T02:22:14.376Z,7.45
2023-05-05T02:23:14.382Z,7.50
2023-05-05T02:24:14.375Z,7.47
2023-05-05T02:25:14.342Z,7.53
2023-05-05T02:26:14.334Z,7.60
2023-05-05T02:27:14.321Z,7.60
2023-05-05T02:28:14.348Z,7.66
2023-05-05T02:29:14.314Z,7.66
2023-05-05T02:30:14.298Z,7.61
2023-05-05T02:31:14.353Z,7.61
2023-05-05T02:32:14.286Z,7.57
2023-05-05T02:33:14.316Z,7.63
2023-05-05T02:34:14.271Z,7.70
2023-05-05T02:35:14.259Z,7.69
2023-05-05T02:36:14.256Z,7.61
2023-05-05T02:37:14.276Z,7.69
2023-05-05T02:38:14.267Z,7.61
2023-05-05T02:39:14.232Z,7.73
2023-05-05T02:40:14.220Z,7.82
2023-05-05T02:41:14.209Z,7.66
2023-05-05T02:42:14.243Z,7.76
2023-05-05T02:43:14.230Z,7.82
2023-05-05T02:44:14.330Z,7.80
2023-05-05T02:45:14.185Z,7.77
2023-05-05T02:46:14.207Z,7.76
2023-05-05T02:47:14.193Z,7.85
2023-05-05T02:48:14.158Z,7.85
2023-05-05T02:49:14.151Z,7.63
2023-05-05T02:50:14.153Z,7.72
2023-05-05T02:51:14.130Z,7.67
2023-05-05T02:52:14.165Z,7.76
2023-05-05T02:53:14.115Z,7.63
2023-05-05T02:54:14.111Z,7.66
2023-05-05T02:55:14.105Z,7.63
2023-05-05T02:56:14.115Z,7.63
2023-05-05T02:57:14.115Z,7.67
2023-05-05T02:58:14.074Z,7.57
2023-05-05T02:59:16.188Z,7.54
2023-05-05T03:00:15.059Z,7.66
2023-05-05T03:01:14.103Z,7.63
2023-05-05T03:02:14.046Z,7.67
2023-05-05T03:03:14.219Z,7.66
2023-05-05T03:04:14.128Z,7.67
2023-05-05T03:05:14.026Z,7.61
2023-05-05T03:06:14.036Z,7.73
2023-05-05T03:07:14.009Z,7.72
2023-05-05T03:08:14.019Z,7.72
2023-05-05T03:09:13.991Z,7.79
2023-05-05T03:10:13.989Z,7.77
2023-05-05T03:11:14.002Z,7.77
2023-05-05T03:12:13.969Z,7.80
2023-05-05T03:13:14.047Z,7.85
2023-05-05T03:14:13.966Z,7.88
2023-05-05T03:15:13.971Z,7.83
2023-05-05T03:16:14.009Z,7.85
2023-05-05T03:17:13.931Z,7.76
2023-05-05T03:18:13.923Z,7.70
2023-05-05T03:19:13.917Z,7.69
2023-05-05T03:20:13.935Z,7.73
2023-05-05T03:21:13.907Z,7.76
2023-05-05T03:22:13.884Z,7.77
2023-05-05T03:23:13.877Z,7.76
2023-05-05T03:24:13.874Z,7.70
2023-05-05T03:25:13.884Z,7.54
2023-05-05T03:26:13.861Z,7.54
2023-05-05T03:27:13.844Z,7.63
2023-05-05T03:28:13.840Z,7.56
2023-05-05T03:29:13.870Z,7.51
2023-05-05T03:30:13.843Z,7.54
2023-05-05T03:31:13.830Z,7.51
2023-05-05T03:32:13.963Z,7.50
2023-05-05T03:33:13.806Z,7.51
2023-05-05T03:34:13.819Z,7.47
2023-05-05T03:35:13.788Z,7.47
2023-05-05T03:36:13.787Z,7.42
2023-05-05T03:37:13.770Z,7.39
2023-05-05T03:38:13.754Z,7.45
2023-05-05T03:39:13.800Z,7.42
2023-05-05T03:40:13.745Z,7.48
2023-05-05T03:41:13.742Z,7.38
2023-05-05T03:42:13.730Z,7.42
2023-05-05T03:43:13.770Z,7.35
2023-05-05T03:44:13.751Z,7.32
2023-05-05T03:45:13.706Z,7.40
2023-05-05T03:46:13.777Z,7.38
2023-05-05T03:47:13.696Z,7.36
2023-05-05T03:48:13.729Z,7.24
2023-05-05T03:49:13.676Z,7.17
2023-05-05T03:50:13.663Z,7.15
2023-05-05T03:51:13.658Z,7.15
2023-05-05T03:52:14.949Z,7.15
2023-05-05T03:53:13.668Z,7.17
2023-05-05T03:54:13.638Z,7.21
2023-05-05T03:55:13.628Z,7.14
2023-05-05T03:56:13.621Z,7.20
2023-05-05T03:57:13.618Z,7.17
2023-05-05T03:58:13.636Z,7.23
2023-05-05T03:59:13.603Z,7.17
2023-05-05T04:00:13.591Z,7.24
2023-05-05T04:01:13.588Z,7.13
2023-05-05T04:02:13.622Z,7.17
2023-05-05T04:03:13.742Z,7.18
2023-05-05T04:04:13.577Z,7.17
2023-05-05T04:05:13.591Z,7.15
2023-05-05T04:06:13.559Z,7.20
2023-05-05T04:07:13.554Z,7.18
2023-05-05T04:08:14.537Z,7.15
2023-05-05T04:09:13.566Z,7.14
2023-05-05T04:10:13.523Z,7.15
2023-05-05T04:11:13.510Z,7.11
2023-05-05T04:12:13.531Z,7.18
2023-05-05T04:13:13.512Z,7.13
2023-05-05T04:14:13.488Z,7.18
2023-05-05T04:15:13.478Z,7.14
2023-05-05T04:16:13.531Z,7.21
2023-05-05T04:17:13.497Z,7.31
2023-05-05T04:18:13.463Z,7.25
2023-05-05T04:19:13.460Z,7.51
2023-05-05T04:20:13.453Z,7.83
2023-05-05T04:21:13.470Z,8.31
2023-05-05T04:22:13.422Z,8.61
2023-05-05T04:23:13.417Z,8.79
2023-05-05T04:24:13.406Z,8.89
2023-05-05T04:25:13.404Z,9.19
2023-05-05T04:26:13.425Z,9.41
2023-05-05T04:27:13.385Z,9.69
2023-05-05T04:28:13.371Z,9.92
2023-05-05T04:29:13.363Z,10.01
2023-05-05T04:30:13.388Z,10.33
2023-05-05T04:31:13.428Z,10.78
2023-05-05T04:32:13.350Z,11.04
2023-05-05T04:33:13.336Z,11.41
2023-05-05T04:34:13.328Z,11.57
2023-05-05T04:35:13.357Z,11.78
2023-05-05T04:36:13.318Z,11.99
2023-05-05T04:37:13.303Z,12.22
2023-05-05T04:38:13.296Z,12.37
2023-05-05T04:39:13.292Z,12.27
2023-05-05T04:40:13.317Z,12.32
2023-05-05T04:41:13.275Z,12.50
2023-05-05T04:42:13.261Z,12.47
2023-05-05T04:43:13.256Z,12.54
2023-05-05T04:44:13.285Z,12.35
2023-05-05T04:45:13.259Z,12.21
2023-05-05T04:46:13.269Z,11.59
2023-05-05T04:47:14.645Z,11.26
2023-05-05T04:48:14.218Z,11.00
2023-05-05T04:49:13.230Z,11.05
2023-05-05T04:50:13.196Z,11.44
2023-05-05T04:51:13.189Z,11.51
2023-05-05T04:52:13.188Z,11.27
2023-05-05T04:53:13.174Z,11.07
2023-05-05T04:54:13.190Z,11.10
2023-05-05T04:55:13.152Z,11.11
2023-05-05T04:56:13.148Z,11.07
2023-05-05T04:57:13.139Z,10.99
2023-05-05T04:58:13.155Z,11.37
2023-05-05T04:59:13.144Z,12.21
2023-05-05T05:00:13.111Z,12.97
2023-05-05T05:01:13.120Z,13.79
2023-05-05T05:02:13.145Z,14.29
2023-05-05T05:03:13.201Z,14.69
2023-05-05T05:04:13.088Z,14.44
2023-05-05T05:05:13.086Z,14.08
2023-05-05T05:06:13.075Z,14.22
2023-05-05T05:07:13.058Z,13.89
2023-05-05T05:08:13.075Z,13.38
2023-05-05T05:09:13.064Z,13.05
2023-05-05T05:10:13.037Z,12.68
2023-05-05T05:11:13.021Z,12.45
2023-05-05T05:12:13.040Z,12.62
2023-05-05T05:13:13.268Z,12.55
2023-05-05T05:14:13.012Z,12.58
2023-05-05T05:15:12.994Z,12.43
2023-05-05T05:16:13.036Z,12.36
2023-05-05T05:17:13.001Z,12.53
2023-05-05T05:18:12.964Z,13.37
2023-05-05T05:19:12.957Z,13.79
2023-05-05T05:20:12.950Z,13.71
2023-05-05T05:21:12.944Z,14.11
2023-05-05T05:22:12.960Z,14.82
2023-05-05T05:23:12.929Z,15.40
2023-05-05T05:24:12.916Z,15.73
2023-05-05T05:25:12.936Z,16.05
2023-05-05T05:26:12.936Z,16.61
2023-05-05T05:27:12.921Z,16.93
2023-05-05T05:28:12.882Z,17.30
2023-05-05T05:29:12.888Z,17.33
2023-05-05T05:30:12.881Z,17.39
2023-05-05T05:31:12.894Z,17.52
2023-05-05T05:32:12.975Z,17.65
2023-05-05T05:33:12.887Z,17.95
2023-05-05T05:34:13.041Z,18.49
2023-05-05T05:35:12.873Z,18.77
2023-05-05T05:36:12.857Z,19.12
2023-05-05T05:37:12.816Z,19.12
2023-05-05T05:38:12.820Z,19.08
2023-05-05T05:39:12.798Z,18.31
2023-05-05T05:40:12.789Z,18.15
2023-05-05T05:41:12.831Z,18.73
2023-05-05T05:42:12.776Z,18.99
2023-05-05T05:43:12.769Z,19.29
2023-05-05T05:44:12.763Z,19.39
2023-05-05T05:45:12.791Z,19.41
2023-05-05T05:46:12.803Z,19.67
2023-05-05T05:47:12.739Z,19.70
2023-05-05T05:48:12.730Z,19.81
2023-05-05T05:49:12.717Z,19.63
2023-05-05T05:50:12.739Z,19.74
2023-05-05T05:51:12.708Z,19.82
2023-05-05T05:52:12.698Z,20.06
2023-05-05T05:53:12.695Z,20.34
2023-05-05T05:54:12.676Z,20.34
2023-05-05T05:55:12.693Z,20.36
2023-05-05T05:56:12.661Z,20.62
2023-05-05T05:57:12.654Z,20.78
2023-05-05T05:58:12.646Z,20.75
2023-05-05T05:59:12.639Z,20.55
2023-05-05T06:00:12.653Z,20.70
2023-05-05T06:01:12.636Z,20.82
2023-05-05T06:02:12.634Z,21.32
2023-05-05T06:03:12.794Z,21.46
2023-05-05T06:04:12.720Z,21.85
2023-05-05T06:05:12.619Z,22.04
2023-05-05T06:06:12.601Z,21.80
2023-05-05T06:07:12.561Z,21.46
2023-05-05T06:08:13.571Z,21.73
2023-05-05T06:09:12.588Z,21.96
2023-05-05T06:10:26.390Z,22.06
2023-05-05T06:11:14.554Z,22.11
2023-05-05T06:12:12.537Z,22.13
2023-05-05T06:13:13.556Z,22.26
2023-05-05T06:14:12.557Z,22.20
2023-05-05T06:15:12.520Z,22.07
2023-05-05T06:16:12.620Z,22.13
2023-05-05T06:17:13.514Z,22.23
2023-05-05T06:18:12.563Z,22.50
2023-05-05T06:19:12.511Z,22.68
2023-05-05T06:20:12.476Z,22.91
2023-05-05T06:21:12.515Z,23.20
2023-05-05T06:22:12.468Z,23.41
2023-05-05T06:23:12.491Z,23.47
2023-05-05T06:24:12.457Z,23.76
2023-05-05T06:25:12.449Z,23.99
2023-05-05T06:26:12.443Z,23.95
2023-05-05T06:27:12.434Z,24.32
2023-05-05T06:28:12.457Z,24.55
2023-05-05T06:29:12.548Z,24.50
2023-05-05T06:30:13.422Z,24.35
2023-05-05T06:31:12.437Z,24.39
2023-05-05T06:32:12.425Z,24.08
2023-05-05T06:33:12.415Z,24.32
2023-05-05T06:34:12.389Z,24.36
2023-05-05T06:35:12.379Z,24.30
2023-05-05T06:36:12.390Z,23.98
2023-05-05T06:37:12.403Z,23.86
2023-05-05T06:38:12.360Z,23.99
2023-05-05T06:39:13.528Z,23.91
2023-05-05T06:40:12.353Z,23.66
2023-05-05T06:41:12.349Z,23.83
2023-05-05T06:42:12.369Z,23.69
2023-05-05T06:43:12.325Z,23.46
2023-05-05T06:44:12.323Z,23.65
2023-05-05T06:45:12.310Z,23.88
2023-05-05T06:46:12.394Z,23.78
2023-05-05T06:47:13.126Z,23.66
2023-05-05T06:48:12.293Z,23.93
2023-05-05T06:49:12.284Z,24.36
2023-05-05T06:50:12.279Z,24.51
2023-05-05T06:51:12.292Z,24.51
2023-05-05T06:52:12.265Z,24.91
2023-05-05T06:53:12.255Z,25.06
2023-05-05T06:54:12.254Z,25.26
2023-05-05T06:55:12.250Z,25.41
2023-05-05T06:56:12.289Z,25.18
2023-05-05T06:57:12.235Z,25.17
2023-05-05T06:58:12.228Z,25.41
2023-05-05T06:59:12.225Z,25.53
2023-05-05T07:00:12.210Z,25.78
2023-05-05T07:01:12.278Z,25.95
2023-05-05T07:02:12.193Z,25.70
2023-05-05T07:03:12.379Z,25.75
2023-05-05T07:04:12.246Z,25.87
2023-05-05T07:05:12.214Z,26.06
2023-05-05T07:06:12.202Z,25.91
2023-05-05T07:07:12.185Z,25.53
2023-05-05T07:08:12.152Z,25.26
2023-05-05T07:09:12.152Z,24.98
2023-05-05T07:10:12.170Z,25.22
2023-05-05T07:11:12.135Z,25.70
2023-05-05T07:12:12.127Z,26.23
2023-05-05T07:13:12.201Z,26.77
2023-05-05T07:14:12.115Z,25.93
2023-05-05T07:15:26.126Z,25.11
2023-05-05T07:16:14.137Z,24.32
2023-05-05T07:17:12.095Z,23.96
2023-05-05T07:18:12.124Z,24.24
2023-05-05T07:19:12.171Z,24.81
2023-05-05T07:20:12.106Z,25.66
2023-05-05T07:21:12.067Z,26.25
2023-05-05T07:22:12.074Z,26.78
2023-05-05T07:23:12.056Z,26.81
2023-05-05T07:24:12.098Z,27.08
2023-05-05T07:25:12.047Z,27.39
2023-05-05T07:26:12.058Z,27.30
2023-05-05T07:27:12.037Z,26.93
2023-05-05T07:28:12.025Z,26.70
2023-05-05T07:29:12.068Z,26.22
2023-05-05T07:30:16.282Z,26.33
2023-05-05T07:31:14.008Z,26.31
2023-05-05T07:32:12.049Z,26.60
2023-05-05T07:33:12.035Z,26.59
2023-05-05T07:34:12.004Z,26.95
2023-05-05T07:35:12.038Z,27.14
2023-05-05T07:36:11.977Z,27.32
2023-05-05T07:37:11.970Z,27.77
2023-05-05T07:38:11.989Z,28.22
2023-05-05T07:39:11.957Z,28.76
2023-05-05T07:40:11.960Z,28.56
2023-05-05T07:41:11.944Z,28.41
2023-05-05T07:42:11.950Z,28.56
2023-05-05T07:43:11.947Z,28.33
2023-05-05T07:44:11.911Z,28.44
2023-05-05T07:45:11.907Z,28.76
2023-05-05T07:46:12.039Z,29.08
2023-05-05T07:47:11.933Z,29.02
2023-05-05T07:48:11.915Z,29.24
2023-05-05T07:49:11.881Z,29.07
2023-05-05T07:50:11.871Z,29.22
2023-05-05T07:51:11.929Z,29.02
2023-05-05T07:52:11.890Z,29.16
2023-05-05T07:53:14.871Z,29.27
2023-05-05T07:54:12.860Z,29.17
2023-05-05T07:55:11.843Z,28.63
2023-05-05T07:56:11.836Z,28.64
2023-05-05T07:57:11.872Z,28.51
2023-05-05T07:58:11.842Z,28.57
2023-05-05T07:59:11.816Z,28.19
2023-05-05T08:00:11.924Z,27.55
2023-05-05T08:01:11.825Z,27.90
2023-05-05T08:02:11.844Z,27.77
2023-05-05T08:03:12.307Z,27.40
2023-05-05T08:04:12.850Z,27.14
2023-05-05T08:05:11.923Z,27.29
2023-05-05T08:06:11.805Z,27.29
2023-05-05T08:07:11.870Z,27.12
2023-05-05T08:08:11.762Z,26.96
2023-05-05T08:09:11.765Z,26.89
2023-05-05T08:10:11.814Z,26.80
2023-05-05T08:11:11.770Z,26.71
2023-05-05T08:12:11.742Z,26.43
2023-05-05T08:13:11.768Z,25.99
2023-05-05T08:14:11.770Z,25.68
2023-05-05T08:15:11.878Z,25.72
2023-05-05T08:16:11.777Z,25.69
2023-05-05T08:17:12.276Z,25.95
2023-05-05T08:18:11.703Z,26.06
2023-05-05T08:19:25.103Z,26.03
2023-05-05T08:20:13.714Z,26.34
2023-05-05T08:21:11.689Z,26.45
2023-05-05T08:22:11.679Z,26.43
2023-05-05T08:23:11.725Z,26.47
2023-05-05T08:24:11.691Z,26.81
2023-05-05T08:25:11.686Z,26.96
2023-05-05T08:26:11.684Z,27.42
2023-05-05T08:27:11.653Z,27.18
2023-05-05T08:28:11.635Z,27.07
2023-05-05T08:29:11.667Z,26.95
2023-05-05T08:30:11.626Z,27.17
2023-05-05T08:31:11.669Z,27.03
2023-05-05T08:32:11.610Z,27.25
2023-05-05T08:33:11.626Z,27.83
2023-05-05T08:34:11.637Z,27.22
2023-05-05T08:35:12.194Z,26.40
2023-05-05T08:36:11.607Z,25.40
2023-05-05T08:37:11.579Z,24.92
2023-05-05T08:38:11.599Z,24.39
2023-05-05T08:39:11.813Z,23.80
2023-05-05T08:40:11.569Z,23.55
2023-05-05T08:41:11.551Z,23.34
2023-05-05T08:42:11.755Z,23.41
2023-05-05T08:43:11.570Z,23.36
2023-05-05T08:44:11.544Z,23.21
2023-05-05T08:45:11.835Z,23.12
2023-05-05T08:46:11.522Z,23.08
2023-05-05T08:47:11.546Z,23.00
2023-05-05T08:48:11.548Z,22.94
2023-05-05T08:49:11.492Z,22.98
2023-05-05T08:50:11.500Z,23.09
2023-05-05T08:51:11.485Z,22.96
2023-05-05T08:52:11.512Z,22.80
2023-05-05T08:53:11.513Z,22.68
2023-05-05T08:54:11.456Z,22.87
2023-05-05T08:55:11.518Z,23.06
2023-05-05T08:56:11.456Z,23.48
2023-05-05T08:57:11.461Z,24.33
2023-05-05T08:58:11.425Z,24.95
2023-05-05T08:59:11.424Z,25.21
2023-05-05T09:00:11.413Z,25.50
2023-05-05T09:01:11.437Z,25.85
2023-05-05T09:02:11.443Z,25.98
2023-05-05T09:03:11.492Z,26.13
2023-05-05T09:04:11.391Z,26.23
2023-05-05T09:05:11.467Z,26.29
2023-05-05T09:06:11.396Z,26.06
2023-05-05T09:07:11.396Z,25.70
2023-05-05T09:08:11.381Z,25.33
2023-05-05T09:09:11.375Z,24.93
2023-05-05T09:10:11.406Z,24.78
2023-05-05T09:11:11.476Z,24.81
2023-05-05T09:12:11.333Z,24.86
2023-05-05T09:13:11.350Z,25.13
2023-05-05T09:14:11.323Z,25.21
2023-05-05T09:15:11.332Z,25.10
2023-05-05T09:16:11.363Z,24.92
2023-05-05T09:17:11.342Z,24.73
2023-05-05T09:18:11.377Z,24.78
2023-05-05T09:19:11.297Z,24.89
2023-05-05T09:20:11.316Z,25.14
2023-05-05T09:21:11.303Z,25.17
2023-05-05T09:22:11.253Z,25.25
2023-05-05T09:23:11.254Z,25.35
2023-05-05T09:24:11.252Z,25.36
2023-05-05T09:25:11.280Z,25.43
2023-05-05T09:26:11.229Z,25.25
2023-05-05T09:27:11.276Z,25.07
2023-05-05T09:28:11.216Z,25.10
2023-05-05T09:29:11.214Z,25.07
2023-05-05T09:30:11.243Z,25.14
2023-05-05T09:31:11.240Z,25.06
2023-05-05T09:32:11.244Z,24.99
2023-05-05T09:33:11.209Z,24.61
2023-05-05T09:34:11.199Z,24.32
2023-05-05T09:35:11.204Z,24.24
2023-05-05T09:36:11.157Z,23.98
2023-05-05T09:37:11.147Z,23.92
2023-05-05T09:38:11.137Z,24.10
2023-05-05T09:39:11.155Z,24.30
2023-05-05T09:40:11.120Z,24.29
2023-05-05T09:41:11.118Z,24.24
2023-05-05T09:42:11.105Z,24.03
2023-05-05T09:43:11.158Z,24.01
2023-05-05T09:44:11.127Z,23.88
2023-05-05T09:45:11.093Z,23.92
2023-05-05T09:46:11.133Z,24.06
2023-05-05T09:47:26.009Z,24.13
2023-05-05T09:48:13.092Z,24.10
2023-05-05T09:49:11.072Z,24.20
2023-05-05T09:50:11.045Z,24.43
2023-05-05T09:51:11.038Z,24.45
2023-05-05T09:52:11.026Z,24.63
2023-05-05T09:53:11.044Z,24.78
2023-05-05T09:54:11.036Z,24.96
2023-05-05T09:55:11.015Z,24.92
2023-05-05T09:56:10.996Z,24.98
2023-05-05T09:57:11.000Z,24.78
2023-05-05T09:58:11.063Z,24.85
2023-05-05T09:59:10.991Z,24.99
2023-05-05T10:00:11.140Z,24.96
2023-05-05T10:01:10.972Z,24.80
2023-05-05T10:02:10.956Z,24.74
2023-05-05T10:03:11.025Z,24.78
2023-05-05T10:04:10.937Z,24.57
2023-05-05T10:05:10.947Z,24.68
2023-05-05T10:06:10.921Z,24.86
2023-05-05T10:07:10.953Z,24.95
2023-05-05T10:08:10.940Z,25.07
2023-05-05T10:09:10.890Z,25.36
2023-05-05T10:10:11.067Z,25.43
2023-05-05T10:11:10.894Z,25.55
2023-05-05T10:12:10.895Z,25.41
2023-05-05T10:13:10.884Z,25.51
2023-05-05T10:14:10.870Z,25.65
2023-05-05T10:15:10.976Z,25.84
2023-05-05T10:16:10.914Z,25.87
2023-05-05T10:17:10.856Z,25.88
2023-05-05T10:18:10.916Z,26.05
2023-05-05T10:19:10.832Z,26.06
2023-05-05T10:20:10.840Z,26.15
2023-05-05T10:21:10.831Z,26.28
2023-05-05T10:22:10.823Z,26.28
2023-05-05T10:23:10.789Z,26.52
2023-05-05T10:24:10.823Z,26.66
2023-05-05T10:25:10.791Z,26.66
2023-05-05T10:26:10.808Z,26.53
2023-05-05T10:27:12.139Z,26.28
2023-05-05T10:28:10.760Z,26.28
2023-05-05T10:29:10.751Z,26.31
2023-05-05T10:30:10.877Z,26.15
2023-05-05T10:31:24.478Z,26.23
2023-05-05T10:32:40.676Z,26.34
2023-05-05T10:33:30.237Z,26.45
2023-05-05T10:34:12.828Z,26.37
2023-05-05T10:35:10.708Z,26.41
2023-05-05T10:36:10.730Z,26.38
2023-05-05T10:37:10.707Z,26.58
2023-05-05T10:38:10.684Z,26.62
2023-05-05T10:39:10.691Z,26.88
2023-05-05T10:40:10.896Z,26.89
2023-05-05T10:41:10.689Z,26.88
2023-05-05T10:42:10.654Z,26.93
2023-05-05T10:43:10.640Z,27.14
2023-05-05T10:44:10.641Z,26.93
2023-05-05T10:45:10.707Z,26.77
2023-05-05T10:46:10.670Z,26.74
2023-05-05T10:47:10.700Z,27.02
2023-05-05T10:48:10.794Z,26.93
2023-05-05T10:49:12.913Z,26.65
2023-05-05T10:50:11.619Z,26.33
2023-05-05T10:51:10.593Z,26.38
2023-05-05T10:52:10.580Z,26.41
2023-05-05T10:53:10.594Z,26.18
2023-05-05T10:54:10.667Z,25.98
2023-05-05T10:55:10.603Z,25.99
2023-05-05T10:56:10.555Z,26.10
2023-05-05T10:57:10.612Z,26.21
2023-05-05T10:58:10.541Z,25.55
2023-05-05T10:59:10.556Z,24.96
2023-05-05T11:00:10.610Z,25.41
2023-05-05T11:01:10.545Z,25.58
2023-05-05T11:02:10.504Z,25.53
2023-05-05T11:03:10.576Z,25.33
2023-05-05T11:04:10.541Z,24.96
2023-05-05T11:05:10.499Z,24.85
2023-05-05T11:06:10.478Z,24.88
2023-05-05T11:07:13.823Z,24.42
2023-05-05T11:08:11.462Z,24.10
2023-05-05T11:09:10.481Z,23.87
2023-05-05T11:10:10.698Z,23.43
2023-05-05T11:11:10.451Z,23.24
2023-05-05T11:12:10.444Z,23.21
2023-05-05T11:13:10.608Z,23.13
2023-05-05T11:14:10.435Z,23.32
2023-05-05T11:15:10.409Z,23.36
2023-05-05T11:16:10.445Z,23.32
2023-05-05T11:17:10.393Z,23.23
2023-05-05T11:18:10.420Z,23.28
2023-05-05T11:19:10.424Z,23.32
2023-05-05T11:20:10.505Z,23.27
2023-05-05T11:21:10.377Z,23.23
2023-05-05T11:22:10.350Z,23.44
2023-05-05T11:23:10.413Z,23.66
2023-05-05T11:24:10.342Z,23.92
2023-05-05T11:25:10.342Z,24.18
2023-05-05T11:26:10.325Z,24.45
2023-05-05T11:27:10.315Z,24.60
2023-05-05T11:28:10.329Z,24.40
2023-05-05T11:29:10.302Z,24.39
2023-05-05T11:30:10.589Z,24.35
2023-05-05T11:31:10.302Z,24.26
2023-05-05T11:32:10.300Z,24.24
2023-05-05T11:33:10.305Z,24.35
2023-05-05T11:34:10.258Z,24.51
2023-05-05T11:35:10.358Z,24.32
2023-05-05T11:36:10.241Z,24.16
2023-05-05T11:37:10.266Z,24.11
2023-05-05T11:38:10.227Z,23.96
2023-05-05T11:39:10.222Z,24.01
2023-05-05T11:40:10.387Z,23.91
2023-05-05T11:41:10.215Z,23.61
2023-05-05T11:42:10.928Z,23.32
2023-05-05T11:43:11.200Z,23.13
2023-05-05T11:44:10.194Z,23.00
2023-05-05T11:45:10.194Z,23.06
2023-05-05T11:46:10.250Z,22.98
2023-05-05T11:47:10.197Z,22.88
2023-05-05T11:48:10.190Z,22.85
2023-05-05T11:49:10.149Z,23.02
2023-05-05T11:50:10.271Z,23.13
2023-05-05T11:51:10.278Z,23.09
2023-05-05T11:52:10.135Z,23.00
2023-05-05T11:53:10.116Z,22.93
2023-05-05T11:54:10.111Z,22.96
2023-05-05T11:55:10.110Z,23.09
2023-05-05T11:56:10.131Z,23.36
2023-05-05T11:57:10.092Z,23.76
2023-05-05T11:58:10.084Z,24.01
2023-05-05T11:59:10.085Z,24.42
2023-05-05T12:00:10.403Z,24.78
2023-05-05T12:01:10.079Z,24.99
2023-05-05T12:02:10.056Z,25.16
2023-05-05T12:03:10.095Z,25.13
2023-05-05T12:04:10.147Z,25.06
2023-05-05T12:05:10.052Z,24.53
2023-05-05T12:06:10.037Z,24.03
2023-05-05T12:07:10.152Z,23.83
2023-05-05T12:08:10.002Z,23.69
2023-05-05T12:09:09.995Z,23.47
2023-05-05T12:10:10.170Z,23.13
2023-05-05T12:11:10.001Z,23.00
2023-05-05T12:12:09.985Z,22.85
2023-05-05T12:13:09.992Z,22.80
2023-05-05T12:14:09.975Z,22.99
2023-05-05T12:15:10.984Z,23.02
2023-05-05T12:16:09.964Z,22.90
2023-05-05T12:17:09.947Z,23.02
2023-05-05T12:18:09.940Z,23.08
2023-05-05T12:19:09.939Z,23.23
2023-05-05T12:20:10.331Z,23.39
2023-05-05T12:21:09.895Z,23.58
2023-05-05T12:22:09.892Z,23.83
2023-05-05T12:23:09.940Z,23.96
2023-05-05T12:24:09.905Z,24.17
2023-05-05T12:25:09.882Z,24.43
2023-05-05T12:26:09.870Z,24.54
2023-05-05T12:27:09.848Z,24.50
2023-05-05T12:28:09.883Z,24.50
2023-05-05T12:29:09.870Z,24.54
2023-05-05T12:30:09.946Z,24.70
2023-05-05T12:31:09.846Z,24.84
2023-05-05T12:32:09.887Z,24.84
2023-05-05T12:33:09.830Z,24.86
2023-05-05T12:34:09.830Z,24.96
2023-05-05T12:35:09.784Z,25.03
2023-05-05T12:36:09.794Z,25.18
2023-05-05T12:37:09.779Z,25.32
2023-05-05T12:38:09.800Z,25.32
2023-05-05T12:39:09.763Z,25.35
2023-05-05T12:40:09.937Z,25.36
2023-05-05T12:41:09.756Z,25.28
2023-05-05T12:42:09.767Z,25.35
2023-05-05T12:43:09.752Z,25.22
2023-05-05T12:44:09.719Z,25.13
2023-05-05T12:45:09.728Z,25.28
2023-05-05T12:46:09.908Z,25.23
2023-05-05T12:47:09.736Z,25.22
2023-05-05T12:48:09.701Z,24.95
2023-05-05T12:49:09.697Z,24.86
2023-05-05T12:50:09.882Z,24.86
2023-05-05T12:51:09.659Z,24.88
2023-05-05T12:52:10.677Z,24.84
2023-05-05T12:53:09.648Z,24.86
2023-05-05T12:54:09.646Z,24.77
2023-05-05T12:55:09.843Z,24.63
2023-05-05T12:56:09.640Z,24.68
2023-05-05T12:57:10.643Z,24.63
2023-05-05T12:58:09.609Z,24.47
2023-05-05T12:59:09.591Z,24.57
2023-05-05T13:00:09.796Z,24.63
2023-05-05T13:01:09.620Z,24.77